createdAt,value
2018-05-04T00:00:55.248Z,11.03
2018-05-04T00:03:22.937Z,10.60
2018-05-04T00:05:54.686Z,10.17
2018-05-04T00:08:27.059Z,10.04
2018-05-04T00:10:59.284Z,10.28
2018-05-04T00:13:26.991Z,10.52
2018-05-04T00:15:54.673Z,10.72
2018-05-04T00:18:22.479Z,10.49
2018-05-04T00:20:50.309Z,10.52
2018-05-04T00:23:17.938Z,10.59
2018-05-04T00:25:45.597Z,10.63
2018-05-04T00:28:13.249Z,10.56
2018-05-04T00:30:40.837Z,10.53
2018-05-04T00:33:08.501Z,10.64
2018-05-04T00:35:36.103Z,10.78
2018-05-04T00:38:03.769Z,10.84
2018-05-04T00:40:31.402Z,10.66
2018-05-04T00:42:59.105Z,10.53
2018-05-04T00:45:27.816Z,10.45
2018-05-04T00:47:55.513Z,10.41
2018-05-04T00:50:23.211Z,10.50
2018-05-04T00:52:50.963Z,10.34
2018-05-04T00:55:18.630Z,10.41
2018-05-04T00:57:46.442Z,10.32
2018-05-04T01:00:15.324Z,10.40
2018-05-04T01:02:55.561Z,10.12
2018-05-04T01:05:35.119Z,10.11
2018-05-04T01:08:07.956Z,10.03
2018-05-04T01:10:39.475Z,9.90
2018-05-04T01:13:09.363Z,10.05
2018-05-04T01:15:39.642Z,10.14
2018-05-04T01:18:09.599Z,10.11
2018-05-04T01:20:38.632Z,10.25
2018-05-04T01:23:11.855Z,10.21
2018-05-04T01:25:42.614Z,10.22
2018-05-04T01:30:51.056Z,10.03
2018-05-04T01:33:21.958Z,9.84
2018-05-04T01:35:51.935Z,9.94
2018-05-04T01:38:30.104Z,9.97
2018-05-04T01:41:06.306Z,9.87
2018-05-04T01:43:37.353Z,9.79
2018-05-04T01:46:07.869Z,9.74
2018-05-04T01:48:40.527Z,9.61
2018-05-04T01:51:09.622Z,9.58
2018-05-04T01:53:37.992Z,9.48
2018-05-04T01:56:06.181Z,9.37
2018-05-04T01:58:34.212Z,9.57
2018-05-04T02:01:04.266Z,9.35
2018-05-04T02:03:32.414Z,9.31
2018-05-04T02:06:00.582Z,9.39
2018-05-04T02:08:29.293Z,9.59
2018-05-04T02:10:57.161Z,9.35
2018-05-04T02:13:25.312Z,9.35
2018-05-04T02:15:54.416Z,9.03
2018-05-04T02:18:22.113Z,8.98
2018-05-04T02:20:50.297Z,9.09
2018-05-04T02:23:18.102Z,9.25
2018-05-04T02:25:48.223Z,9.18
2018-05-04T02:28:15.975Z,8.73
2018-05-04T02:30:43.604Z,8.81
2018-05-04T02:33:11.337Z,8.97
2018-05-04T02:35:38.961Z,9.06
2018-05-04T02:38:06.618Z,8.88
2018-05-04T02:40:34.301Z,8.74
2018-05-04T02:43:01.989Z,8.84
2018-05-04T02:45:29.617Z,9.03
2018-05-04T02:47:57.280Z,9.14
2018-05-04T02:50:24.912Z,9.12
2018-05-04T02:52:52.575Z,8.98
2018-05-04T02:55:20.220Z,9.10
2018-05-04T02:57:47.959Z,9.05
2018-05-04T03:00:15.697Z,9.03
2018-05-04T03:02:43.472Z,9.17
2018-05-04T03:05:11.185Z,9.33
2018-05-04T03:07:38.885Z,9.18
2018-05-04T03:10:06.554Z,9.15
2018-05-04T03:12:34.512Z,9.10
2018-05-04T03:15:02.193Z,9.14
2018-05-04T03:17:29.805Z,9.01
2018-05-04T03:19:57.465Z,9.08
2018-05-04T03:22:25.280Z,9.04
2018-05-04T03:24:52.930Z,9.18
2018-05-04T03:27:20.550Z,9.24
2018-05-04T03:29:48.205Z,9.11
2018-05-04T03:32:15.868Z,8.76
2018-05-04T03:34:43.482Z,8.88
2018-05-04T03:37:11.196Z,8.83
2018-05-04T03:39:38.805Z,8.59
2018-05-04T03:42:06.466Z,8.26
2018-05-04T03:44:34.076Z,8.39
2018-05-04T03:47:01.725Z,8.45
2018-05-04T03:49:29.337Z,8.47
2018-05-04T03:51:56.989Z,8.37
2018-05-04T03:54:24.624Z,8.33
2018-05-04T03:56:52.253Z,8.06
2018-05-04T03:59:31.508Z,8.04
2018-05-04T04:02:10.777Z,7.97
2018-05-04T04:04:38.381Z,7.84
2018-05-04T04:07:06.018Z,7.61
2018-05-04T04:09:33.616Z,7.97
2018-05-04T04:12:01.289Z,8.20
2018-05-04T04:14:28.881Z,8.18
2018-05-04T04:16:56.464Z,8.35
2018-05-04T04:19:24.083Z,8.24
2018-05-04T04:21:51.696Z,8.39
2018-05-04T04:24:20.913Z,8.23
2018-05-04T04:26:48.513Z,8.25
2018-05-04T04:29:16.137Z,8.25
2018-05-04T04:31:43.725Z,8.34
2018-05-04T04:34:11.461Z,8.41
2018-05-04T04:36:39.065Z,8.66
2018-05-04T04:39:06.728Z,8.61
2018-05-04T04:41:34.330Z,8.33
2018-05-04T04:44:01.977Z,8.26
2018-05-04T04:46:29.583Z,8.12
2018-05-04T04:48:57.206Z,8.11
2018-05-04T04:51:24.800Z,8.04
2018-05-04T04:53:52.448Z,8.26
2018-05-04T04:56:20.058Z,8.07
2018-05-04T04:58:47.750Z,7.94
2018-05-04T05:01:15.407Z,8.12
2018-05-04T05:03:42.994Z,8.24
2018-05-04T05:06:10.645Z,8.51
2018-05-04T05:08:38.231Z,8.69
2018-05-04T05:11:05.948Z,8.60
2018-05-04T05:13:33.743Z,8.33
2018-05-04T05:16:01.280Z,8.28
2018-05-04T05:18:28.880Z,8.33
2018-05-04T05:20:56.523Z,8.36
2018-05-04T05:23:24.134Z,8.27
2018-05-04T05:25:51.761Z,8.21
2018-05-04T05:28:19.352Z,8.24
2018-05-04T05:30:47.061Z,8.25
2018-05-04T05:33:14.671Z,8.42
2018-05-04T05:35:42.492Z,8.63
2018-05-04T05:38:10.088Z,8.89
2018-05-04T05:40:37.725Z,9.10
2018-05-04T05:43:05.330Z,9.38
2018-05-04T05:45:33.037Z,9.61
2018-05-04T05:48:00.711Z,9.69
2018-05-04T05:50:28.411Z,9.77
2018-05-04T05:52:56.052Z,9.72
2018-05-04T05:55:23.644Z,9.74
2018-05-04T05:57:51.364Z,9.88
2018-05-04T06:00:19.010Z,10.09
2018-05-04T06:02:46.822Z,10.24
2018-05-04T06:05:14.596Z,10.35
2018-05-04T06:07:43.823Z,10.45
2018-05-04T06:10:11.725Z,10.51
2018-05-04T06:12:41.571Z,10.61
2018-05-04T06:15:10.359Z,10.68
2018-05-04T06:17:38.321Z,10.75
2018-05-04T06:20:06.121Z,10.77
2018-05-04T06:22:33.965Z,10.88
2018-05-04T06:25:02.043Z,10.96
2018-05-04T06:27:29.826Z,11.11
2018-05-04T06:29:57.810Z,11.21
2018-05-04T06:32:26.357Z,11.10
2018-05-04T06:34:54.231Z,11.23
2018-05-04T06:37:27.692Z,11.26
2018-05-04T06:39:55.780Z,11.36
2018-05-04T06:42:24.178Z,11.47
2018-05-04T06:44:51.942Z,11.55
2018-05-04T06:47:19.754Z,11.57
2018-05-04T06:49:47.583Z,11.54
2018-05-04T06:52:16.369Z,11.57
2018-05-04T06:54:45.037Z,11.62
2018-05-04T06:57:14.338Z,11.74
2018-05-04T06:59:42.100Z,11.86
2018-05-04T07:02:09.822Z,12.03
2018-05-04T07:04:48.497Z,12.03
2018-05-04T07:07:24.290Z,12.16
2018-05-04T07:09:52.422Z,12.23
2018-05-04T07:12:20.071Z,12.30
2018-05-04T07:14:47.752Z,12.32
2018-05-04T07:17:15.407Z,12.35
2018-05-04T07:19:43.032Z,12.41
2018-05-04T07:22:10.761Z,12.46
2018-05-04T07:24:38.411Z,12.54
2018-05-04T07:27:06.059Z,12.65
2018-05-04T07:29:34.009Z,12.73
2018-05-04T07:32:01.721Z,12.79
2018-05-04T07:34:29.510Z,12.78
2018-05-04T07:36:57.292Z,12.85
2018-05-04T07:39:25.009Z,12.93
2018-05-04T07:41:52.689Z,13.01
2018-05-04T07:44:24.494Z,13.16
2018-05-04T07:46:54.302Z,13.18
2018-05-04T07:49:21.917Z,13.22
2018-05-04T07:51:49.678Z,13.26
2018-05-04T07:54:17.525Z,13.37
2018-05-04T07:56:45.265Z,13.44
2018-05-04T07:59:13.080Z,13.55
2018-05-04T08:01:40.899Z,13.66
2018-05-04T08:04:08.546Z,13.90
2018-05-04T08:06:36.162Z,13.95
2018-05-04T08:09:03.861Z,13.97
2018-05-04T08:11:31.549Z,14.01
2018-05-04T08:13:59.281Z,14.10
2018-05-04T08:16:27.020Z,14.22
2018-05-04T08:18:57.731Z,14.44
2018-05-04T08:21:25.468Z,14.51
2018-05-04T08:23:53.113Z,14.59
2018-05-04T08:26:21.094Z,14.53
2018-05-04T08:28:48.752Z,14.74
2018-05-04T08:31:16.924Z,14.80
2018-05-04T08:33:44.598Z,14.88
2018-05-04T08:36:12.288Z,14.89
2018-05-04T08:38:40.363Z,15.01
2018-05-04T08:41:08.032Z,15.08
2018-05-04T08:43:35.876Z,15.11
2018-05-04T08:46:05.765Z,15.20
2018-05-04T08:48:33.459Z,15.28
2018-05-04T08:51:01.162Z,15.32
2018-05-04T08:53:29.065Z,15.24
2018-05-04T08:55:56.714Z,15.30
2018-05-04T08:58:24.371Z,15.47
2018-05-04T09:00:56.226Z,15.58
2018-05-04T09:03:24.146Z,15.50
2018-05-04T09:05:52.033Z,15.59
2018-05-04T09:08:19.802Z,15.65
2018-05-04T09:10:47.645Z,15.72
2018-05-04T09:13:15.350Z,15.79
2018-05-04T09:15:43.068Z,15.96
2018-05-04T09:18:10.817Z,16.22
2018-05-04T09:20:39.015Z,16.40
2018-05-04T09:23:06.661Z,16.59
2018-05-04T09:25:34.352Z,16.69
2018-05-04T09:28:02.113Z,16.58
2018-05-04T09:30:29.878Z,16.68
2018-05-04T09:32:57.685Z,16.77
2018-05-04T09:35:25.613Z,16.75
2018-05-04T09:37:53.241Z,16.98
2018-05-04T09:40:20.972Z,17.06
2018-05-04T09:42:48.689Z,16.99
2018-05-04T09:45:16.341Z,17.09
2018-05-04T09:47:44.113Z,17.23
2018-05-04T09:50:11.738Z,17.33
2018-05-04T09:52:39.429Z,17.40
2018-05-04T09:55:07.032Z,17.41
2018-05-04T09:57:34.657Z,17.78
2018-05-04T10:00:02.934Z,17.87
2018-05-04T10:02:30.590Z,17.85
2018-05-04T10:04:58.202Z,17.86
2018-05-04T10:07:27.056Z,18.11
2018-05-04T10:09:54.949Z,18.28
2018-05-04T10:12:23.175Z,18.20
2018-05-04T10:14:50.905Z,18.41
2018-05-04T10:17:18.576Z,18.61
2018-05-04T10:19:46.190Z,18.78
2018-05-04T10:22:13.900Z,19.03
2018-05-04T10:24:41.526Z,19.26
2018-05-04T10:27:09.309Z,19.06
2018-05-04T10:29:36.951Z,19.31
2018-05-04T10:32:04.545Z,19.28
2018-05-04T10:34:32.317Z,19.06
2018-05-04T10:37:00.069Z,19.40
2018-05-04T10:39:27.739Z,19.58
2018-05-04T10:41:55.345Z,19.96
2018-05-04T10:44:23.025Z,20.03
2018-05-04T10:46:50.739Z,20.16
2018-05-04T10:49:18.425Z,20.05
2018-05-04T10:51:46.018Z,20.26
2018-05-04T10:54:13.724Z,20.50
2018-05-04T10:56:41.372Z,20.40
2018-05-04T10:59:09.016Z,21.03
2018-05-04T11:01:36.727Z,20.78
2018-05-04T11:04:04.351Z,20.55
2018-05-04T11:06:32.004Z,20.40
2018-05-04T11:08:59.635Z,20.73
2018-05-04T11:11:27.297Z,20.89
2018-05-04T11:13:54.882Z,21.10
2018-05-04T11:16:22.539Z,20.93
2018-05-04T11:18:50.162Z,21.12
2018-05-04T11:21:17.789Z,21.39
2018-05-04T11:23:45.397Z,21.62
2018-05-04T11:26:13.050Z,22.06
2018-05-04T11:28:40.673Z,22.53
2018-05-04T11:31:08.302Z,22.32
2018-05-04T11:33:35.920Z,22.18
2018-05-04T11:36:03.616Z,22.23
2018-05-04T11:38:31.237Z,22.21
2018-05-04T11:40:58.868Z,22.44
2018-05-04T11:43:26.466Z,22.56
2018-05-04T11:45:54.113Z,22.34
2018-05-04T11:48:21.890Z,22.50
2018-05-04T11:50:49.550Z,23.06
2018-05-04T11:53:17.482Z,23.44
2018-05-04T11:55:45.078Z,23.59
2018-05-04T11:58:12.763Z,23.31
2018-05-04T12:00:40.404Z,23.57
2018-05-04T12:03:08.022Z,23.80
2018-05-04T12:05:35.730Z,23.88
2018-05-04T12:08:03.383Z,23.63
2018-05-04T12:10:30.992Z,23.77
2018-05-04T12:12:58.620Z,23.85
2018-05-04T12:15:26.256Z,23.35
2018-05-04T12:17:54.084Z,23.15
2018-05-04T12:20:21.664Z,23.59
2018-05-04T12:22:49.323Z,23.75
2018-05-04T12:25:16.937Z,23.80
2018-05-04T12:27:44.591Z,24.21
2018-05-04T12:30:12.185Z,24.49
2018-05-04T12:32:39.816Z,24.78
2018-05-04T12:35:07.412Z,24.62
2018-05-04T12:37:35.068Z,24.72
2018-05-04T12:40:02.807Z,24.31
2018-05-04T12:42:30.433Z,23.94
2018-05-04T12:44:58.092Z,23.74
2018-05-04T12:47:25.685Z,23.75
2018-05-04T12:49:53.329Z,24.17
2018-05-04T12:52:20.961Z,24.18
2018-05-04T12:54:48.615Z,23.98
2018-05-04T12:57:16.213Z,23.32
2018-05-04T12:59:43.845Z,23.58
2018-05-04T13:02:11.453Z,24.22
2018-05-04T13:04:39.079Z,24.69
2018-05-04T13:07:06.680Z,24.91
2018-05-04T13:09:34.360Z,24.79
2018-05-04T13:12:02.011Z,24.34
2018-05-04T13:14:29.639Z,24.26
2018-05-04T13:16:57.293Z,24.23
2018-05-04T13:19:25.003Z,23.89
2018-05-04T13:21:52.629Z,24.28
2018-05-04T13:24:20.289Z,24.93
2018-05-04T13:26:47.906Z,25.24
2018-05-04T13:29:15.568Z,25.10
2018-05-04T13:31:43.238Z,24.77
2018-05-04T13:34:10.845Z,24.61
2018-05-04T13:36:38.518Z,24.55
2018-05-04T13:39:06.102Z,24.60
2018-05-04T13:41:33.959Z,24.50
2018-05-04T13:44:01.581Z,24.75
2018-05-04T13:46:29.237Z,24.97
2018-05-04T13:48:56.901Z,24.93
2018-05-04T13:51:24.610Z,25.82
2018-05-04T13:53:52.187Z,26.21
2018-05-04T13:56:19.828Z,25.99
2018-05-04T13:58:47.444Z,26.16
2018-05-04T14:01:15.185Z,26.08
2018-05-04T14:03:42.652Z,25.98
2018-05-04T14:06:10.283Z,25.81
2018-05-04T14:08:37.942Z,25.52
2018-05-04T14:11:05.613Z,25.79
2018-05-04T14:13:33.213Z,25.76
2018-05-04T14:16:00.842Z,25.86
2018-05-04T14:18:28.534Z,25.85
2018-05-04T14:20:56.132Z,25.97
2018-05-04T14:23:23.763Z,25.51
2018-05-04T14:25:51.354Z,25.67
2018-05-04T14:28:19.004Z,26.15
2018-05-04T14:30:46.588Z,25.77
2018-05-04T14:33:14.255Z,25.76
2018-05-04T14:35:41.842Z,25.58
2018-05-04T14:38:09.581Z,25.46
2018-05-04T14:40:37.198Z,25.65
2018-05-04T14:43:04.887Z,26.11
2018-05-04T14:45:32.553Z,26.41
2018-05-04T14:48:00.201Z,26.55
2018-05-04T14:50:27.818Z,26.17
2018-05-04T14:52:55.517Z,26.30
2018-05-04T14:55:23.124Z,26.50
2018-05-04T14:57:50.770Z,25.81
2018-05-04T15:00:18.418Z,25.94
2018-05-04T15:02:46.066Z,25.88
2018-05-04T15:05:13.802Z,26.41
2018-05-04T15:07:41.406Z,26.54
2018-05-04T15:10:09.056Z,25.58
2018-05-04T15:12:36.678Z,25.80
2018-05-04T15:15:04.295Z,26.02
2018-05-04T15:17:31.889Z,26.24
2018-05-04T15:19:59.525Z,26.61
2018-05-04T15:22:27.100Z,26.71
2018-05-04T15:24:54.794Z,27.38
2018-05-04T15:27:22.344Z,26.96
2018-05-04T15:29:49.993Z,27.05
2018-05-04T15:32:17.662Z,26.88
2018-05-04T15:34:45.362Z,27.18
2018-05-04T15:37:12.994Z,26.74
2018-05-04T15:39:40.644Z,27.01
2018-05-04T15:42:08.245Z,26.97
2018-05-04T15:44:35.977Z,26.91
2018-05-04T15:47:03.589Z,27.13
2018-05-04T15:49:31.203Z,26.87
2018-05-04T15:52:04.281Z,26.72
2018-05-04T15:54:31.958Z,26.51
2018-05-04T15:56:59.629Z,26.10
2018-05-04T15:59:27.226Z,25.98
2018-05-04T16:01:54.854Z,26.02
2018-05-04T16:04:22.469Z,25.81
2018-05-04T16:06:50.207Z,26.28
2018-05-04T16:09:17.792Z,25.93
2018-05-04T16:11:45.436Z,25.75
2018-05-04T16:14:13.030Z,25.78
2018-05-04T16:16:40.661Z,25.36
2018-05-04T16:19:08.317Z,25.64
2018-05-04T16:21:35.950Z,25.43
2018-05-04T16:24:03.561Z,25.52
2018-05-04T16:26:31.230Z,25.50
2018-05-04T16:28:58.885Z,25.48
2018-05-04T16:31:26.454Z,25.44
2018-05-04T16:33:54.126Z,25.50
2018-05-04T16:36:21.720Z,25.74
2018-05-04T16:38:49.434Z,25.93
2018-05-04T16:41:16.992Z,26.07
2018-05-04T16:43:44.633Z,26.15
2018-05-04T16:46:17.698Z,25.96
2018-05-04T16:48:50.802Z,25.64
2018-05-04T16:51:18.447Z,25.90
2018-05-04T16:53:46.087Z,25.70
2018-05-04T16:56:13.690Z,25.73
2018-05-04T16:58:41.359Z,25.70
2018-05-04T17:01:08.988Z,25.90
2018-05-04T17:03:36.616Z,25.52
2018-05-04T17:06:04.280Z,25.64
2018-05-04T17:08:31.925Z,25.10
2018-05-04T17:10:59.520Z,25.18
2018-05-04T17:13:28.153Z,25.38
2018-05-04T17:15:55.803Z,25.45
2018-05-04T17:18:23.445Z,25.17
2018-05-04T17:20:51.027Z,25.14
2018-05-04T17:23:18.639Z,25.29
2018-05-04T17:25:46.341Z,25.03
2018-05-04T17:28:13.995Z,24.72
2018-05-04T17:30:41.790Z,24.36
2018-05-04T17:33:09.380Z,24.62
2018-05-04T17:35:37.010Z,24.25
2018-05-04T17:38:04.602Z,24.23
2018-05-04T17:40:32.945Z,24.35
2018-05-04T17:43:00.448Z,24.10
2018-05-04T17:45:28.143Z,24.07
2018-05-04T17:47:55.776Z,23.87
2018-05-04T17:50:23.464Z,23.59
2018-05-04T17:52:51.061Z,23.65
2018-05-04T17:55:18.701Z,23.53
2018-05-04T17:57:46.309Z,23.10
2018-05-04T18:00:13.964Z,22.71
2018-05-04T18:02:41.561Z,22.67
2018-05-04T18:05:09.165Z,22.55
2018-05-04T18:07:36.806Z,22.35
2018-05-04T18:10:04.409Z,22.16
2018-05-04T18:12:32.073Z,21.82
2018-05-04T18:14:59.685Z,21.54
2018-05-04T18:17:27.468Z,21.55
2018-05-04T18:19:55.003Z,21.41
2018-05-04T18:22:22.643Z,21.45
2018-05-04T18:24:50.243Z,21.29
2018-05-04T18:27:17.973Z,21.25
2018-05-04T18:29:45.586Z,21.24
2018-05-04T18:32:13.239Z,21.22
2018-05-04T18:34:40.846Z,20.97
2018-05-04T18:37:08.496Z,20.90
2018-05-04T18:39:36.229Z,20.94
2018-05-04T18:42:04.848Z,20.89
2018-05-04T18:44:32.457Z,20.71
2018-05-04T18:47:00.097Z,20.48
2018-05-04T18:49:27.726Z,20.46
2018-05-04T18:51:55.382Z,20.30
2018-05-04T18:54:22.994Z,20.19
2018-05-04T18:56:50.689Z,20.06
2018-05-04T18:59:18.331Z,19.95
2018-05-04T19:01:45.948Z,19.79
2018-05-04T19:04:13.707Z,19.74
2018-05-04T19:06:41.563Z,19.94
2018-05-04T19:09:09.199Z,19.71
2018-05-04T19:11:36.854Z,19.52
2018-05-04T19:14:04.486Z,19.53
2018-05-04T19:16:32.121Z,19.36
2018-05-04T19:18:59.792Z,19.39
2018-05-04T19:21:27.433Z,19.30
2018-05-04T19:23:55.102Z,19.23
2018-05-04T19:26:22.726Z,19.24
2018-05-04T19:28:50.363Z,19.12
2018-05-04T19:31:17.961Z,19.03
2018-05-04T19:33:45.610Z,18.94
2018-05-04T19:36:13.240Z,19.02
2018-05-04T19:38:40.887Z,18.95
2018-05-04T19:41:08.510Z,18.96
2018-05-04T19:43:36.153Z,18.92
2018-05-04T19:46:03.752Z,18.85
2018-05-04T19:48:31.389Z,18.81
2018-05-04T19:50:59.021Z,18.64
2018-05-04T19:53:26.632Z,18.57
2018-05-04T19:55:54.288Z,18.64
2018-05-04T19:58:21.906Z,18.44
2018-05-04T20:00:49.592Z,18.40
2018-05-04T20:03:17.189Z,18.50
2018-05-04T20:05:44.839Z,18.40
2018-05-04T20:08:12.439Z,18.41
2018-05-04T20:10:40.099Z,18.35
2018-05-04T20:13:07.736Z,18.25
2018-05-04T20:15:35.398Z,18.19
2018-05-04T20:18:03.051Z,18.20
2018-05-04T20:20:30.665Z,18.26
2018-05-04T20:22:58.819Z,18.06
2018-05-04T20:25:26.466Z,17.98
2018-05-04T20:27:54.931Z,18.00
2018-05-04T20:30:22.498Z,17.78
2018-05-04T20:32:50.946Z,17.86
2018-05-04T20:35:19.474Z,17.92
2018-05-04T20:37:47.637Z,17.99
2018-05-04T20:40:15.233Z,17.79
2018-05-04T20:42:44.510Z,17.81
2018-05-04T20:45:12.108Z,17.86
2018-05-04T20:47:39.745Z,17.69
2018-05-04T20:50:07.345Z,17.68
2018-05-04T20:52:35.013Z,17.63
2018-05-04T20:55:02.641Z,17.66
2018-05-04T20:57:30.289Z,17.53
2018-05-04T20:59:57.913Z,17.61
2018-05-04T21:02:25.569Z,17.45
2018-05-04T21:04:53.179Z,17.35
2018-05-04T21:07:20.818Z,17.46
2018-05-04T21:09:48.431Z,17.28
2018-05-04T21:12:16.262Z,17.30
2018-05-04T21:14:43.864Z,17.02
2018-05-04T21:17:11.508Z,17.08
2018-05-04T21:19:39.268Z,17.27
2018-05-04T21:22:06.874Z,17.29
2018-05-04T21:24:34.529Z,17.39
2018-05-04T21:27:02.146Z,17.32
2018-05-04T21:29:29.789Z,17.44
2018-05-04T21:31:57.440Z,17.39
2018-05-04T21:34:25.164Z,17.38
2018-05-04T21:36:52.776Z,17.38
2018-05-04T21:39:20.481Z,17.19
2018-05-04T21:41:48.069Z,17.14
2018-05-04T21:44:15.738Z,17.11
2018-05-04T21:46:43.345Z,17.10
2018-05-04T21:49:10.996Z,16.99
2018-05-04T21:51:38.621Z,17.02
2018-05-04T21:54:06.278Z,17.00
2018-05-04T21:56:33.916Z,16.91
2018-05-04T21:59:01.596Z,16.90
2018-05-04T22:01:29.163Z,16.79
2018-05-04T22:03:56.898Z,16.87
2018-05-04T22:06:24.537Z,16.70
2018-05-04T22:08:52.161Z,16.69
2018-05-04T22:11:19.841Z,16.73
2018-05-04T22:13:47.453Z,16.52
2018-05-04T22:16:15.139Z,16.31
2018-05-04T22:18:44.817Z,16.32
2018-05-04T22:21:13.251Z,16.40
2018-05-04T22:23:41.163Z,16.33
2018-05-04T22:26:09.188Z,16.40
2018-05-04T22:28:39.048Z,16.26
2018-05-04T22:31:08.036Z,16.38
2018-05-04T22:33:35.918Z,16.34
2018-05-04T22:36:04.988Z,16.42
2018-05-04T22:38:37.911Z,16.44
2018-05-04T22:41:09.980Z,16.38
2018-05-04T22:43:39.511Z,16.33
2018-05-04T22:46:08.588Z,16.32
2018-05-04T22:48:36.357Z,16.31
2018-05-04T22:51:05.569Z,16.24
2018-05-04T22:53:34.053Z,16.05
2018-05-04T22:56:03.156Z,15.88
2018-05-04T22:58:33.058Z,15.82
2018-05-04T23:01:01.019Z,15.71
2018-05-04T23:03:30.020Z,15.71
2018-05-04T23:05:58.187Z,15.63
2018-05-04T23:08:28.519Z,15.62
2018-05-04T23:10:57.005Z,15.59
2018-05-04T23:13:24.916Z,15.68
2018-05-04T23:15:55.663Z,15.58
2018-05-04T23:18:25.467Z,15.48
2018-05-04T23:20:54.517Z,15.55
2018-05-04T23:23:22.400Z,15.33
2018-05-04T23:25:50.341Z,15.34
2018-05-04T23:28:18.162Z,15.34
2018-05-04T23:30:45.935Z,15.23
2018-05-04T23:33:13.617Z,15.25
2018-05-04T23:35:41.335Z,15.30
2018-05-04T23:38:09.514Z,15.36
2018-05-04T23:40:37.446Z,15.42
2018-05-04T23:43:06.422Z,15.35
2018-05-04T23:45:34.525Z,15.47
2018-05-04T23:48:06.503Z,15.45
2018-05-04T23:50:41.892Z,15.49
2018-05-04T23:53:10.234Z,15.28
2018-05-04T23:55:38.383Z,15.16
2018-05-04T23:58:06.239Z,15.03
